Time;durP1;ratioP1;P1;durP2;ratioP2;P2;SDS_P1;SDS_P2;PMS_P1;PMS_P2;Temp;Humidity;BMP_temperature;BMP_pressure;BME280_temperature;BME280_humidity;BME280_pressure;Samples;Min_cycle;Max_cycle;Signal;HPM_P1;HPM_P2
2022/07/18 00:00:15;;;;;;;5.07;4.57;;;22.80;99.90;;;;;;1043176;28;20009;-68
2022/07/18 00:00:46;;;;;;;5.33;4.47;;;22.80;99.90;;;;;;1038894;28;20023;-65
2022/07/18 00:01:16;;;;;;;5.57;4.27;;;22.80;99.90;;;;;;1039103;28;20506;-67
2022/07/18 00:01:46;;;;;;;5.70;4.57;;;22.80;99.90;;;;;;1038370;28;20504;-67
2022/07/18 00:02:17;;;;;;;5.00;4.30;;;22.80;99.90;;;;;;1039252;28;20472;-66
2022/07/18 00:02:48;;;;;;;6.73;4.70;;;22.80;99.90;;;;;;1043115;28;20013;-67
2022/07/18 00:03:18;;;;;;;5.03;4.00;;;22.80;99.90;;;;;;1047388;28;20095;-67
2022/07/18 00:03:49;;;;;;;5.77;4.67;;;22.80;99.90;;;;;;1047394;28;20000;-67
2022/07/18 00:04:19;;;;;;;4.93;4.43;;;22.80;99.90;;;;;;1047613;28;20373;-67
2022/07/18 00:04:50;;;;;;;5.87;4.70;;;22.80;99.90;;;;;;1047253;28;20373;-67
2022/07/18 00:05:21;;;;;;;8.60;4.70;;;22.80;99.90;;;;;;1042806;28;20400;-67
2022/07/18 00:05:51;;;;;;;6.57;4.33;;;22.80;99.90;;;;;;1043121;28;20013;-67
2022/07/18 00:06:22;;;;;;;5.23;3.93;;;22.80;99.90;;;;;;1042949;28;20013;-67
2022/07/18 00:06:54;;;;;;;6.20;4.27;;;22.80;99.90;;;;;;1047137;28;20499;-67
2022/07/18 00:07:25;;;;;;;5.55;4.40;;;22.80;99.90;;;;;;1042841;28;20037;-67
2022/07/18 00:07:55;;;;;;;7.30;4.33;;;22.80;99.90;;;;;;1043173;28;20021;-67
2022/07/18 00:08:26;;;;;;;5.23;4.40;;;22.80;99.90;;;;;;1042926;28;20020;-67
2022/07/18 00:08:57;;;;;;;6.97;4.73;;;22.80;99.90;;;;;;1047242;28;20212;-67
2022/07/18 00:09:27;;;;;;;5.18;4.10;;;22.80;99.90;;;;;;1046935;28;20210;-67
2022/07/18 00:09:58;;;;;;;5.80;4.30;;;22.80;99.90;;;;;;1047353;28;20027;-67
2022/07/18 00:10:29;;;;;;;4.93;4.03;;;22.80;99.90;;;;;;1043862;28;20575;-68
2022/07/18 00:11:00;;;;;;;6.90;4.47;;;22.80;99.90;;;;;;1043138;28;20702;-67
2022/07/18 00:11:31;;;;;;;4.82;4.00;;;22.70;99.90;;;;;;1042716;28;20024;-67
2022/07/18 00:12:02;;;;;;;5.57;4.07;;;22.70;99.90;;;;;;1043155;28;20025;-67
2022/07/18 00:12:33;;;;;;;5.82;4.72;;;22.70;99.90;;;;;;1043013;28;20637;-67
2022/07/18 00:13:03;;;;;;;7.17;4.37;;;22.70;99.90;;;;;;1043216;28;20167;-68
2022/07/18 00:13:34;;;;;;;6.33;4.13;;;22.70;99.90;;;;;;1043207;28;20013;-65
2022/07/18 00:14:05;;;;;;;5.40;4.30;;;22.70;99.90;;;;;;1043364;28;20021;-66
2022/07/18 00:14:36;;;;;;;5.70;4.83;;;22.70;99.90;;;;;;1043207;28;20108;-66
2022/07/18 00:15:09;;;;;;;6.70;4.38;;;22.70;99.90;;;;;;1042792;28;20175;-66
2022/07/18 00:15:40;;;;;;;5.38;4.53;;;22.70;99.90;;;;;;1042803;28;20032;-66
2022/07/18 00:16:11;;;;;;;5.20;4.20;;;22.70;99.90;;;;;;1043035;28;20056;-66
2022/07/18 00:16:42;;;;;;;5.83;4.47;;;22.60;99.90;;;;;;1042748;28;20086;-66
2022/07/18 00:17:13;;;;;;;5.00;4.50;;;22.60;99.90;;;;;;1043095;28;20767;-66
2022/07/18 00:17:43;;;;;;;5.87;4.30;;;22.60;99.90;;;;;;1042929;28;20079;-66
2022/07/18 00:18:14;;;;;;;7.10;4.90;;;22.60;99.90;;;;;;1043209;28;20043;-66
2022/07/18 00:18:45;;;;;;;5.13;4.50;;;22.60;99.90;;;;;;1042931;28;20562;-65
2022/07/18 00:19:16;;;;;;;4.68;4.18;;;22.60;99.90;;;;;;1043478;28;20028;-66
2022/07/18 00:19:47;;;;;;;5.88;4.35;;;22.60;99.90;;;;;;1042761;28;20024;-66
2022/07/18 00:20:18;;;;;;;6.10;4.53;;;22.60;99.90;;;;;;1043099;28;20048;-66
2022/07/18 00:20:48;;;;;;;5.90;4.40;;;22.60;99.90;;;;;;1038695;28;20020;-66
2022/07/18 00:21:19;;;;;;;6.27;4.73;;;22.60;99.90;;;;;;1034801;28;20018;-66
2022/07/18 00:21:49;;;;;;;6.43;4.60;;;22.60;99.90;;;;;;1034758;28;20056;-66
2022/07/18 00:22:20;;;;;;;5.33;4.07;;;22.60;99.90;;;;;;1039093;28;20025;-67
2022/07/18 00:22:50;;;;;;;5.97;4.40;;;22.60;99.90;;;;;;1042990;28;20028;-66
2022/07/18 00:23:21;;;;;;;4.40;3.77;;;22.60;99.90;;;;;;1043348;28;20057;-66
2022/07/18 00:23:51;;;;;;;5.33;4.10;;;22.60;99.90;;;;;;1043338;28;20024;-67
2022/07/18 00:24:22;;;;;;;6.03;4.67;;;22.60;99.90;;;;;;1043119;28;20182;-66
2022/07/18 00:24:53;;;;;;;5.13;4.63;;;22.60;99.90;;;;;;1042932;28;20040;-66
2022/07/18 00:25:24;;;;;;;5.93;4.80;;;22.60;99.90;;;;;;1043087;28;20098;-65
2022/07/18 00:25:55;;;;;;;5.70;4.50;;;22.60;99.90;;;;;;1042875;28;20024;-67
2022/07/18 00:26:26;;;;;;;7.60;4.83;;;22.60;99.90;;;;;;1042934;28;20094;-66
2022/07/18 00:26:57;;;;;;;6.03;4.57;;;22.50;99.90;;;;;;1042847;28;20123;-66
2022/07/18 00:27:27;;;;;;;5.75;4.78;;;22.50;99.90;;;;;;1043146;28;20020;-66
2022/07/18 00:27:58;;;;;;;5.97;4.67;;;22.50;99.90;;;;;;1047155;28;20475;-67
2022/07/18 00:28:28;;;;;;;5.33;4.20;;;22.50;99.90;;;;;;1042965;28;20024;-66
2022/07/18 00:28:59;;;;;;;5.57;4.43;;;22.50;99.90;;;;;;1043058;28;20044;-66
2022/07/18 00:29:30;;;;;;;7.03;4.70;;;22.50;99.90;;;;;;1042671;28;20531;-66
2022/07/18 00:30:01;;;;;;;4.67;4.03;;;22.50;99.90;;;;;;1043024;28;20539;-66
2022/07/18 00:30:32;;;;;;;4.75;4.18;;;22.50;99.90;;;;;;1038730;28;20061;-66
2022/07/18 00:31:03;;;;;;;4.53;3.50;;;22.50;99.90;;;;;;1038602;28;20021;-66
2022/07/18 00:31:34;;;;;;;6.18;5.05;;;22.50;99.90;;;;;;1034039;28;20524;-66
2022/07/18 00:32:07;;;;;;;6.07;4.53;;;22.50;99.90;;;;;;1034914;28;20037;-66
2022/07/18 00:32:38;;;;;;;6.75;4.10;;;22.50;99.90;;;;;;1038714;28;20268;-65
2022/07/18 00:33:09;;;;;;;5.07;4.30;;;22.50;99.90;;;;;;1039141;28;20579;-66
2022/07/18 00:33:40;;;;;;;4.50;4.10;;;22.50;99.90;;;;;;1043010;28;20500;-66
2022/07/18 00:34:10;;;;;;;5.80;4.53;;;22.50;99.90;;;;;;1038812;28;20648;-66
2022/07/18 00:34:41;;;;;;;5.40;4.33;;;22.50;99.90;;;;;;1041726;28;20025;-66
2022/07/18 00:35:11;;;;;;;6.93;4.87;;;22.50;99.90;;;;;;1047198;28;20537;-67
2022/07/18 00:35:42;;;;;;;5.13;3.97;;;22.50;99.90;;;;;;1046978;28;20028;-66
2022/07/18 00:36:13;;;;;;;5.77;4.17;;;22.50;99.90;;;;;;1047085;28;20024;-67
2022/07/18 00:36:43;;;;;;;6.03;3.97;;;22.50;99.90;;;;;;1046970;28;20016;-67
2022/07/18 00:37:14;;;;;;;5.90;4.43;;;22.50;99.90;;;;;;1047260;28;20016;-66
2022/07/18 00:37:44;;;;;;;6.20;4.80;;;22.50;99.90;;;;;;1042944;28;20719;-66
2022/07/18 00:38:15;;;;;;;6.33;5.03;;;22.50;99.90;;;;;;1046855;28;20097;-66
2022/07/18 00:38:46;;;;;;;5.97;4.17;;;22.50;99.90;;;;;;1038611;28;20048;-66
2022/07/18 00:39:16;;;;;;;5.03;3.90;;;22.50;99.90;;;;;;1039133;28;20347;-66
2022/07/18 00:39:47;;;;;;;5.87;4.67;;;22.50;99.90;;;;;;1038871;28;20163;-66
2022/07/18 00:40:18;;;;;;;5.80;4.30;;;22.50;99.90;;;;;;1043140;28;20420;-66
2022/07/18 00:40:49;;;;;;;5.50;4.72;;;22.50;99.90;;;;;;1043115;28;20583;-66
2022/07/18 00:41:19;;;;;;;4.97;4.00;;;22.50;99.90;;;;;;1043401;28;20508;-66
2022/07/18 00:41:51;;;;;;;6.15;4.43;;;22.50;99.90;;;;;;1046931;28;20040;-65
2022/07/18 00:42:21;;;;;;;5.60;4.80;;;22.50;99.90;;;;;;1047175;28;20453;-66
2022/07/18 00:42:52;;;;;;;5.33;4.63;;;22.50;99.90;;;;;;1047030;28;20107;-66
2022/07/18 00:43:22;;;;;;;5.77;4.57;;;22.50;99.90;;;;;;1047183;28;20020;-65
2022/07/18 00:43:54;;;;;;;4.73;4.03;;;22.50;99.90;;;;;;1043205;28;20484;-66
2022/07/18 00:44:28;;;;;;;4.78;3.78;;;22.50;99.90;;;;;;1047059;28;20773;-65
2022/07/18 00:44:59;;;;;;;7.50;4.28;;;22.50;99.90;;;;;;1047012;28;20078;-67
2022/07/18 00:45:30;;;;;;;5.50;4.03;;;22.50;99.90;;;;;;1042966;28;20075;-65
2022/07/18 00:46:01;;;;;;;5.43;4.50;;;22.40;99.90;;;;;;1042679;28;20029;-66
2022/07/18 00:46:31;;;;;;;6.00;4.37;;;22.40;99.90;;;;;;1043135;28;20108;-66
2022/07/18 00:47:02;;;;;;;6.57;4.57;;;22.40;99.90;;;;;;1042725;28;20219;-66
2022/07/18 00:47:33;;;;;;;8.57;4.60;;;22.40;99.90;;;;;;1042995;28;20021;-66
2022/07/18 00:48:07;;;;;;;5.80;4.50;;;22.40;99.90;;;;;;1042671;28;20029;-67
2022/07/18 00:48:39;;;;;;;5.00;4.35;;;22.40;99.90;;;;;;1042895;28;20492;-66
2022/07/18 00:49:10;;;;;;;7.30;4.18;;;22.40;99.90;;;;;;1042685;28;20032;-66
2022/07/18 00:49:41;;;;;;;9.20;4.70;;;22.40;99.90;;;;;;1045210;28;20040;-67
2022/07/18 00:50:12;;;;;;;6.32;4.55;;;22.40;99.90;;;;;;1046806;28;20032;-66
2022/07/18 00:50:43;;;;;;;5.17;4.20;;;22.40;99.90;;;;;;1043205;28;20010;-67
2022/07/18 00:51:14;;;;;;;6.40;4.82;;;22.40;99.90;;;;;;1046928;28;20091;-67
2022/07/18 00:51:45;;;;;;;5.63;4.80;;;22.40;99.90;;;;;;1042850;28;20013;-67
2022/07/18 00:52:16;;;;;;;6.45;3.83;;;22.40;99.90;;;;;;1043184;28;20017;-67
2022/07/18 00:52:46;;;;;;;5.30;4.77;;;22.40;99.90;;;;;;1047061;28;20008;-67
2022/07/18 00:53:17;;;;;;;7.50;4.17;;;22.40;99.90;;;;;;1046076;28;20013;-67
2022/07/18 00:53:49;;;;;;;4.97;4.20;;;22.40;99.90;;;;;;1043411;28;20083;-68
2022/07/18 00:54:20;;;;;;;6.15;3.92;;;22.30;99.90;;;;;;1043082;28;20109;-67
2022/07/18 00:54:50;;;;;;;5.37;4.50;;;22.30;99.90;;;;;;1042978;28;20013;-67
2022/07/18 00:55:21;;;;;;;5.47;4.80;;;22.30;99.90;;;;;;1042623;28;20227;-68
2022/07/18 00:55:53;;;;;;;6.23;4.20;;;22.30;99.90;;;;;;1042934;28;20076;-67
2022/07/18 00:56:24;;;;;;;4.78;4.05;;;22.30;99.90;;;;;;1042714;28;20014;-67
2022/07/18 00:56:55;;;;;;;5.85;4.53;;;22.30;99.90;;;;;;1042482;28;20549;-67
2022/07/18 00:57:27;;;;;;;5.32;4.70;;;22.30;99.90;;;;;;1042679;28;20393;-67
2022/07/18 00:57:58;;;;;;;4.78;4.20;;;22.30;99.90;;;;;;1042515;28;20017;-67
2022/07/18 00:58:29;;;;;;;5.47;4.85;;;22.30;99.90;;;;;;1038729;28;20021;-67
2022/07/18 00:59:00;;;;;;;4.25;3.85;;;22.30;99.90;;;;;;1039174;28;20524;-68
2022/07/18 01:01:59;;;;;;;7.70;4.97;;;22.30;99.90;;;;;;1042683;28;20095;-67
2022/07/18 01:02:30;;;;;;;7.53;5.07;;;22.30;99.90;;;;;;1043284;28;20028;-68
2022/07/18 01:03:00;;;;;;;6.47;4.23;;;22.30;99.90;;;;;;1043159;28;20066;-67
2022/07/18 01:03:31;;;;;;;7.57;4.70;;;22.30;99.90;;;;;;1043359;28;20067;-68
2022/07/18 01:04:01;;;;;;;6.37;5.10;;;22.20;99.90;;;;;;1043162;28;20024;-67
2022/07/18 01:04:32;;;;;;;5.50;4.27;;;22.20;99.90;;;;;;1043000;28;20044;-67
2022/07/18 01:05:04;;;;;;;7.53;4.87;;;22.20;99.90;;;;;;1042659;28;20017;-69
2022/07/18 01:05:35;;;;;;;6.32;4.10;;;22.20;99.90;;;;;;1043027;28;20330;-67
2022/07/18 01:06:05;;;;;;;4.90;3.93;;;22.20;99.90;;;;;;1042786;28;20138;-68
2022/07/18 01:06:36;;;;;;;6.93;4.30;;;22.20;99.90;;;;;;1042739;28;20032;-67
2022/07/18 01:07:08;;;;;;;4.73;4.03;;;22.20;99.90;;;;;;1038486;28;20693;-67
2022/07/18 01:07:38;;;;;;;6.97;4.43;;;22.20;99.90;;;;;;1038914;28;20248;-67
2022/07/18 01:08:10;;;;;;;6.17;4.23;;;22.20;99.90;;;;;;1035652;28;20073;-68
2022/07/18 01:08:43;;;;;;;6.00;4.80;;;22.20;99.90;;;;;;1043265;28;20027;-67
2022/07/18 01:09:15;;;;;;;6.07;4.72;;;22.20;99.90;;;;;;1046544;28;20005;-67
2022/07/18 01:09:46;;;;;;;6.47;4.63;;;22.20;99.90;;;;;;1047022;28;20261;-67
2022/07/18 01:10:18;;;;;;;7.57;5.20;;;22.20;99.90;;;;;;1047209;28;20429;-67
2022/07/18 01:10:50;;;;;;;5.07;4.40;;;22.20;99.90;;;;;;1047035;28;20013;-67
2022/07/18 01:11:21;;;;;;;5.43;4.43;;;22.20;99.90;;;;;;1046672;28;20012;-68
2022/07/18 01:11:52;;;;;;;6.38;3.97;;;22.20;99.90;;;;;;1047008;28;20037;-67
2022/07/18 01:12:25;;;;;;;5.30;4.00;;;22.20;99.90;;;;;;1046795;28;20066;-66
2022/07/18 01:12:55;;;;;;;6.53;4.50;;;22.20;99.90;;;;;;1047419;28;20012;-66
2022/07/18 01:13:26;;;;;;;5.57;4.60;;;22.20;99.90;;;;;;1046990;28;20103;-66
2022/07/18 01:13:57;;;;;;;5.47;4.63;;;22.20;99.90;;;;;;1047538;28;20009;-65
2022/07/18 01:14:28;;;;;;;7.35;4.38;;;22.20;99.90;;;;;;1046528;28;20013;-66
2022/07/18 01:14:59;;;;;;;5.20;4.33;;;22.20;99.90;;;;;;1047217;28;20017;-65
2022/07/18 01:15:30;;;;;;;5.27;4.50;;;22.20;99.90;;;;;;1046694;28;20750;-67
2022/07/18 01:16:00;;;;;;;5.38;4.38;;;22.20;99.90;;;;;;1042739;28;20009;-66
2022/07/18 01:16:31;;;;;;;5.73;4.60;;;22.20;99.90;;;;;;1042642;28;20038;-66
2022/07/18 01:17:02;;;;;;;7.65;5.03;;;22.20;99.90;;;;;;1043279;28;20017;-69
2022/07/18 01:17:33;;;;;;;6.60;4.43;;;22.20;99.90;;;;;;1046843;28;20088;-68
2022/07/18 01:18:04;;;;;;;6.10;4.23;;;22.20;99.90;;;;;;1047027;28;20107;-69
2022/07/18 01:18:35;;;;;;;6.28;4.70;;;22.20;99.90;;;;;;1046878;28;20074;-68
2022/07/18 01:19:06;;;;;;;5.20;4.70;;;22.20;99.90;;;;;;1046862;28;20019;-68
2022/07/18 01:19:36;;;;;;;6.30;5.17;;;22.20;99.90;;;;;;1046893;28;20514;-69
2022/07/18 01:20:07;;;;;;;6.67;5.10;;;22.20;99.90;;;;;;1046981;28;20025;-68
2022/07/18 01:20:38;;;;;;;5.78;4.60;;;22.20;99.90;;;;;;1046926;28;20021;-69
2022/07/18 01:21:09;;;;;;;5.63;4.77;;;22.20;99.90;;;;;;1046991;28;20103;-68
2022/07/18 01:21:39;;;;;;;6.13;4.63;;;22.20;99.90;;;;;;1047014;28;20962;-68
2022/07/18 01:22:11;;;;;;;6.37;4.37;;;22.10;99.90;;;;;;1047045;28;20452;-68
2022/07/18 01:22:42;;;;;;;5.05;4.25;;;22.20;99.90;;;;;;1046746;28;20016;-69
2022/07/18 01:23:13;;;;;;;6.17;4.67;;;22.10;99.90;;;;;;1042738;28;20025;-69
2022/07/18 01:23:44;;;;;;;6.40;4.67;;;22.10;99.90;;;;;;1042690;28;20112;-69
2022/07/18 01:24:15;;;;;;;5.87;4.30;;;22.10;99.90;;;;;;1043098;28;20248;-69
2022/07/18 01:24:46;;;;;;;5.10;4.40;;;22.10;99.90;;;;;;1042844;28;20096;-69
2022/07/18 01:25:17;;;;;;;5.72;4.18;;;22.10;99.90;;;;;;1047040;28;20027;-69
2022/07/18 01:25:48;;;;;;;4.57;3.83;;;22.10;99.90;;;;;;1046786;28;20024;-69
2022/07/18 01:26:19;;;;;;;5.90;4.50;;;22.10;99.90;;;;;;1043162;28;20041;-69
2022/07/18 01:26:49;;;;;;;5.47;4.30;;;22.10;99.90;;;;;;1042862;28;20080;-69
2022/07/18 01:27:21;;;;;;;5.93;4.70;;;22.10;99.90;;;;;;1042800;28;20431;-69
2022/07/18 01:27:52;;;;;;;4.68;4.18;;;22.10;99.90;;;;;;1042773;28;20032;-69
2022/07/18 01:28:24;;;;;;;4.97;4.40;;;22.10;99.90;;;;;;1038666;28;20025;-69
2022/07/18 01:28:55;;;;;;;5.68;4.20;;;22.10;99.90;;;;;;1038614;28;20075;-69
2022/07/18 01:29:26;;;;;;;5.55;4.35;;;22.10;99.90;;;;;;1039048;28;20709;-68
2022/07/18 01:29:56;;;;;;;5.10;4.10;;;22.10;99.90;;;;;;1042886;28;20365;-69
2022/07/18 01:30:27;;;;;;;6.50;4.80;;;22.10;99.90;;;;;;1043051;28;20362;-69
2022/07/18 01:30:58;;;;;;;5.27;4.13;;;22.10;99.90;;;;;;1046874;28;20027;-69
2022/07/18 01:31:33;;;;;;;5.43;4.53;;;22.10;99.90;;;;;;1047159;28;20076;-69
2022/07/18 01:32:05;;;;;;;5.70;4.00;;;22.10;99.90;;;;;;1047203;28;20020;-68
2022/07/18 01:32:35;;;;;;;6.30;4.18;;;22.10;99.90;;;;;;1047249;28;20494;-69
2022/07/18 01:33:07;;;;;;;7.23;5.27;;;22.10;99.90;;;;;;1046710;28;20016;-69
2022/07/18 01:33:38;;;;;;;6.18;4.20;;;22.10;99.90;;;;;;1046841;28;20016;-69
2022/07/18 01:34:09;;;;;;;6.38;4.15;;;22.00;99.90;;;;;;1046774;28;20024;-69
2022/07/18 01:34:40;;;;;;;5.32;4.45;;;22.00;99.90;;;;;;1047022;28;20119;-69
2022/07/18 01:35:12;;;;;;;4.82;4.30;;;22.00;99.90;;;;;;1046827;28;20109;-69
2022/07/18 01:35:42;;;;;;;6.43;4.68;;;22.00;99.90;;;;;;1046799;28;20432;-69
2022/07/18 01:36:13;;;;;;;6.80;4.67;;;22.10;99.90;;;;;;1046851;28;20410;-69
2022/07/18 01:36:44;;;;;;;4.85;4.20;;;22.00;99.90;;;;;;1042894;28;20013;-68
2022/07/18 01:37:16;;;;;;;5.73;4.20;;;22.00;99.90;;;;;;1047006;28;20043;-71
2022/07/18 01:37:52;;;;;;;5.97;4.75;;;22.00;99.90;;;;;;1046859;28;20472;-69
2022/07/18 01:38:23;;;;;;;4.75;4.25;;;22.00;99.90;;;;;;1046705;28;20509;-69
2022/07/18 01:38:54;;;;;;;5.60;4.20;;;22.00;99.90;;;;;;1047454;28;20349;-69
2022/07/18 01:39:24;;;;;;;4.63;4.13;;;22.00;99.90;;;;;;1047133;28;20087;-69
2022/07/18 01:39:55;;;;;;;5.23;4.23;;;22.00;99.90;;;;;;1047398;28;20367;-69
2022/07/18 01:40:26;;;;;;;5.30;4.80;;;22.00;99.90;;;;;;1047221;28;20047;-69
2022/07/18 01:40:57;;;;;;;5.23;4.27;;;22.00;99.90;;;;;;1047246;28;20016;-69
2022/07/18 01:41:27;;;;;;;6.68;4.88;;;22.00;99.90;;;;;;1047223;28;20017;-69
2022/07/18 01:42:01;;;;;;;4.90;4.00;;;22.00;99.90;;;;;;1047248;28;20021;-69
2022/07/18 01:42:31;;;;;;;5.03;4.25;;;22.00;99.90;;;;;;1047288;28;20099;-69
2022/07/18 01:43:02;;;;;;;5.90;4.00;;;22.00;99.90;;;;;;1047109;28;20046;-69
2022/07/18 01:43:34;;;;;;;5.70;4.50;;;22.00;99.90;;;;;;1046770;28;20024;-69
2022/07/18 01:44:04;;;;;;;5.10;4.15;;;22.00;99.90;;;;;;1046703;28;20302;-68
2022/07/18 01:44:35;;;;;;;6.33;4.33;;;22.00;99.90;;;;;;1046949;28;20016;-69
2022/07/18 01:45:06;;;;;;;5.40;3.83;;;22.00;99.90;;;;;;1046637;28;20017;-69
2022/07/18 01:45:37;;;;;;;6.80;4.37;;;22.00;99.90;;;;;;1046993;28;20261;-69
2022/07/18 01:46:09;;;;;;;5.10;4.13;;;21.90;99.90;;;;;;1046594;28;21060;-69
2022/07/18 01:46:40;;;;;;;5.80;4.00;;;22.00;99.90;;;;;;1047039;28;20016;-69
2022/07/18 01:47:11;;;;;;;5.33;4.20;;;21.90;99.90;;;;;;1046972;28;20095;-69
2022/07/18 01:47:42;;;;;;;5.65;4.15;;;21.90;99.90;;;;;;1047333;28;20532;-69
2022/07/18 01:48:13;;;;;;;5.10;4.00;;;22.00;99.90;;;;;;1046534;28;20491;-69
2022/07/18 01:48:44;;;;;;;5.83;4.40;;;22.00;99.90;;;;;;1047056;28;20563;-69
2022/07/18 01:49:15;;;;;;;4.80;4.00;;;21.90;99.90;;;;;;1046468;28;20021;-69
2022/07/18 01:49:46;;;;;;;5.73;4.63;;;21.90;99.90;;;;;;1047089;28;20016;-69
2022/07/18 01:50:17;;;;;;;5.28;4.07;;;21.90;99.90;;;;;;1042456;28;20040;-69
2022/07/18 01:50:47;;;;;;;5.13;4.47;;;21.90;99.90;;;;;;1042960;28;20126;-69
2022/07/18 01:51:18;;;;;;;4.67;4.03;;;21.90;99.90;;;;;;1046592;28;20304;-69
2022/07/18 01:51:52;;;;;;;4.97;3.87;;;22.00;99.90;;;;;;1042902;28;20013;-69
2022/07/18 01:52:23;;;;;;;5.53;4.38;;;21.90;99.90;;;;;;1046611;28;20054;-69
2022/07/18 01:52:53;;;;;;;5.60;3.67;;;22.00;99.90;;;;;;1042841;28;20127;-69
2022/07/18 01:53:25;;;;;;;5.17;4.13;;;21.90;99.90;;;;;;1042966;28;20088;-69
2022/07/18 01:54:01;;;;;;;6.10;4.30;;;21.90;99.90;;;;;;1046991;28;20017;-69
2022/07/18 01:54:33;;;;;;;5.95;4.05;;;21.90;99.90;;;;;;1046641;28;20021;-69
2022/07/18 01:55:06;;;;;;;7.75;4.90;;;21.90;99.90;;;;;;1046820;28;20100;-69
2022/07/18 01:55:38;;;;;;;5.43;4.32;;;21.90;99.90;;;;;;1042548;28;20495;-69
2022/07/18 01:56:12;;;;;;;5.60;4.07;;;21.90;99.90;;;;;;1039204;28;20112;-69
2022/07/18 01:56:42;;;;;;;5.43;4.18;;;21.90;99.90;;;;;;1038491;28;20083;-69
2022/07/18 01:57:13;;;;;;;5.43;4.00;;;21.90;99.90;;;;;;1039316;28;20209;-69
2022/07/18 01:57:44;;;;;;;4.80;4.28;;;21.90;99.90;;;;;;1038996;28;20115;-70
2022/07/18 01:58:15;;;;;;;4.97;3.90;;;21.90;99.90;;;;;;1042890;28;20017;-69
2022/07/18 01:58:45;;;;;;;5.80;4.47;;;21.90;99.90;;;;;;1046815;28;20496;-69
2022/07/18 01:59:17;;;;;;;6.13;4.77;;;21.90;99.90;;;;;;1042653;28;20025;-69
2022/07/18 01:59:48;;;;;;;5.47;4.38;;;21.90;99.90;;;;;;1042479;28;20285;-69
2022/07/18 02:00:19;;;;;;;5.65;4.32;;;21.90;99.90;;;;;;1038367;28;20033;-69
2022/07/18 02:00:50;;;;;;;4.90;4.13;;;21.90;99.90;;;;;;1038999;28;20017;-69
2022/07/18 02:01:21;;;;;;;6.68;4.95;;;21.90;99.90;;;;;;1042888;28;20813;-68
2022/07/18 02:01:52;;;;;;;4.80;3.88;;;21.90;99.90;;;;;;1046185;28;20143;-69
2022/07/18 02:02:23;;;;;;;6.00;4.10;;;21.90;99.90;;;;;;1042543;28;20134;-68
2022/07/18 02:02:53;;;;;;;4.40;3.87;;;21.90;99.90;;;;;;1040293;28;20092;-68
2022/07/18 02:03:24;;;;;;;5.80;3.87;;;21.90;99.90;;;;;;1038634;28;20724;-68
2022/07/18 02:03:54;;;;;;;5.30;3.83;;;21.90;99.90;;;;;;1038455;28;20743;-68
2022/07/18 02:04:59;;;;;;;5.97;3.87;;;21.90;99.90;;;;;;1042621;28;20067;-68
2022/07/18 02:05:17;;;;;;;5.03;3.90;;;21.90;99.90;;;;;;1042567;28;20029;-68
2022/07/18 02:05:47;;;;;;;7.53;4.80;;;21.90;99.90;;;;;;1042796;28;20047;-68
2022/07/18 02:06:18;;;;;;;5.13;4.07;;;21.80;99.90;;;;;;1042971;28;20016;-68
2022/07/18 02:06:48;;;;;;;5.13;3.93;;;21.80;99.90;;;;;;1043078;28;20017;-68
2022/07/18 02:07:19;;;;;;;4.77;4.20;;;21.80;99.90;;;;;;1042524;28;20036;-68
2022/07/18 02:07:50;;;;;;;4.77;3.70;;;21.80;99.90;;;;;;1042785;28;20025;-68
2022/07/18 02:08:20;;;;;;;5.00;4.27;;;21.80;99.90;;;;;;1045176;28;20020;-68
2022/07/18 02:08:51;;;;;;;5.30;4.07;;;21.80;99.90;;;;;;1042852;28;20021;-68
2022/07/18 02:09:21;;;;;;;5.83;4.53;;;21.80;99.90;;;;;;1045869;28;20111;-68
2022/07/18 02:09:52;;;;;;;5.87;3.80;;;21.80;99.90;;;;;;1046961;28;20611;-68
2022/07/18 02:10:23;;;;;;;6.65;4.18;;;21.80;99.90;;;;;;1042347;28;20150;-69
2022/07/18 02:10:54;;;;;;;5.43;3.97;;;21.80;99.90;;;;;;1043123;28;20025;-69
2022/07/18 02:11:24;;;;;;;5.77;4.17;;;21.80;99.90;;;;;;1046567;28;20255;-68
2022/07/18 02:11:55;;;;;;;6.50;4.40;;;21.80;99.90;;;;;;1047056;28;20063;-68
2022/07/18 02:12:26;;;;;;;6.77;4.70;;;21.80;99.90;;;;;;1046276;28;20083;-68
2022/07/18 02:12:56;;;;;;;5.33;4.47;;;21.80;99.90;;;;;;1047001;28;20246;-68
2022/07/18 02:13:27;;;;;;;5.83;4.10;;;21.80;99.90;;;;;;1046515;28;20546;-68
2022/07/18 02:13:57;;;;;;;5.50;3.80;;;21.80;99.90;;;;;;1046937;28;20094;-68
2022/07/18 02:14:28;;;;;;;5.07;3.97;;;21.80;99.90;;;;;;1046727;28;20074;-68
2022/07/18 02:14:59;;;;;;;5.63;4.23;;;21.80;99.90;;;;;;1047337;28;20099;-68
2022/07/18 02:15:29;;;;;;;6.13;4.17;;;21.80;99.90;;;;;;1046911;28;20104;-67
2022/07/18 02:16:00;;;;;;;5.83;4.07;;;21.80;99.90;;;;;;1046714;28;20026;-68
2022/07/18 02:16:32;;;;;;;5.25;4.32;;;21.80;99.90;;;;;;1046574;28;20024;-68
2022/07/18 02:17:02;;;;;;;5.78;3.85;;;21.70;99.90;;;;;;1046868;28;20129;-69
2022/07/18 02:17:33;;;;;;;6.15;3.88;;;21.80;99.90;;;;;;1046465;28;20082;-68
2022/07/18 02:18:04;;;;;;;4.60;4.07;;;21.70;99.90;;;;;;1046798;28;20112;-68
2022/07/18 02:18:35;;;;;;;5.53;4.03;;;21.80;99.90;;;;;;1042340;28;20672;-68
2022/07/18 02:19:05;;;;;;;4.87;3.60;;;21.70;99.90;;;;;;1042863;28;20073;-69
2022/07/18 02:19:36;;;;;;;4.97;3.87;;;21.80;99.90;;;;;;1046705;28;20017;-68
2022/07/18 02:20:09;;;;;;;5.60;4.50;;;21.70;99.90;;;;;;1046726;28;20654;-68
2022/07/18 02:20:40;;;;;;;5.32;4.28;;;21.70;99.90;;;;;;1042279;28;20112;-68
2022/07/18 02:21:10;;;;;;;5.60;4.40;;;21.70;99.90;;;;;;1042804;28;20025;-68
2022/07/18 02:21:41;;;;;;;4.80;4.23;;;21.70;99.90;;;;;;1042826;28;20029;-68
2022/07/18 02:22:12;;;;;;;5.80;4.10;;;21.70;99.90;;;;;;1046798;28;20028;-68
2022/07/18 02:22:43;;;;;;;5.57;4.20;;;21.70;99.90;;;;;;1046994;28;20079;-69
2022/07/18 02:23:14;;;;;;;4.53;3.97;;;21.70;99.90;;;;;;1047233;28;20574;-68
2022/07/18 02:23:45;;;;;;;6.07;4.63;;;21.70;99.90;;;;;;1046350;28;20835;-68
2022/07/18 02:24:16;;;;;;;5.23;4.03;;;21.70;99.90;;;;;;1046824;28;20023;-69
2022/07/18 02:24:47;;;;;;;6.47;4.07;;;21.70;99.90;;;;;;1046515;28;20448;-69
2022/07/18 02:25:18;;;;;;;5.13;4.30;;;21.70;99.90;;;;;;1046818;28;20648;-68
2022/07/18 02:25:49;;;;;;;6.00;4.05;;;21.70;99.90;;;;;;1046598;28;20025;-68
2022/07/18 02:26:19;;;;;;;8.53;4.77;;;21.70;99.90;;;;;;1046701;28;20028;-68
2022/07/18 02:26:50;;;;;;;4.90;4.03;;;21.70;99.90;;;;;;1046710;28;20522;-68
2022/07/18 02:27:21;;;;;;;4.43;3.90;;;21.70;99.90;;;;;;1042553;28;20041;-68
2022/07/18 02:27:52;;;;;;;4.72;3.90;;;21.70;99.90;;;;;;1042476;28;20116;-69
2022/07/18 02:28:22;;;;;;;5.37;4.13;;;21.70;99.90;;;;;;1042600;28;20439;-69
2022/07/18 02:28:53;;;;;;;4.37;3.63;;;21.70;99.90;;;;;;1042879;28;20071;-68
2022/07/18 02:29:23;;;;;;;5.03;3.97;;;21.70;99.90;;;;;;1042238;28;20102;-68
2022/07/18 02:29:54;;;;;;;4.33;3.90;;;21.70;99.90;;;;;;1038448;28;20033;-68
2022/07/18 02:30:25;;;;;;;4.50;3.70;;;21.70;99.90;;;;;;1038343;28;20092;-68
2022/07/18 02:30:55;;;;;;;4.87;3.80;;;21.70;99.90;;;;;;1040117;28;20044;-68
2022/07/18 02:31:27;;;;;;;4.57;3.83;;;21.70;99.90;;;;;;1046495;28;20289;-68
2022/07/18 02:31:58;;;;;;;4.93;3.95;;;21.70;99.90;;;;;;1047163;28;20028;-68
2022/07/18 02:32:29;;;;;;;5.67;3.97;;;21.70;99.90;;;;;;1046457;28;20119;-69
2022/07/18 02:32:59;;;;;;;4.90;3.70;;;21.70;99.90;;;;;;1046898;28;20028;-69
2022/07/18 02:33:30;;;;;;;4.43;3.47;;;21.70;99.90;;;;;;1046767;28;20048;-69
2022/07/18 02:34:01;;;;;;;4.38;3.95;;;21.70;99.90;;;;;;1046624;28;20142;-68
2022/07/18 02:34:32;;;;;;;6.10;3.93;;;21.70;99.90;;;;;;1046631;28;20114;-68
2022/07/18 02:35:05;;;;;;;6.30;3.28;;;21.70;99.90;;;;;;1046694;28;20553;-69
2022/07/18 02:35:37;;;;;;;4.93;4.28;;;21.70;99.90;;;;;;1046755;28;20020;-68
2022/07/18 02:36:07;;;;;;;4.20;3.53;;;21.70;99.90;;;;;;1046523;28;20029;-68
2022/07/18 02:36:38;;;;;;;5.20;3.77;;;21.70;99.90;;;;;;1046731;28;20113;-68
2022/07/18 02:37:10;;;;;;;4.93;3.42;;;21.70;99.90;;;;;;1046798;28;20016;-67
2022/07/18 02:37:41;;;;;;;4.75;4.07;;;21.70;99.90;;;;;;1046284;28;20017;-68
2022/07/18 02:38:12;;;;;;;5.75;4.00;;;21.70;99.90;;;;;;1046633;28;20102;-68
2022/07/18 02:38:43;;;;;;;5.30;4.33;;;21.70;99.90;;;;;;1046466;28;20150;-67
2022/07/18 02:39:14;;;;;;;4.50;3.90;;;21.70;99.90;;;;;;1046771;28;20254;-68
2022/07/18 02:39:44;;;;;;;5.60;4.03;;;21.70;99.90;;;;;;1046662;28;20009;-68
2022/07/18 02:40:15;;;;;;;5.80;4.13;;;21.60;99.90;;;;;;1046796;28;20016;-68
2022/07/18 02:40:46;;;;;;;6.00;3.60;;;21.60;99.90;;;;;;1046622;28;20167;-68
2022/07/18 02:41:17;;;;;;;5.73;4.00;;;21.60;99.90;;;;;;1046760;28;20258;-68
2022/07/18 02:41:48;;;;;;;6.18;4.15;;;21.60;99.90;;;;;;1046605;28;20021;-69
2022/07/18 02:42:18;;;;;;;5.50;4.63;;;21.60;99.90;;;;;;1046785;28;20014;-69
2022/07/18 02:42:49;;;;;;;5.20;3.50;;;21.60;99.90;;;;;;1046482;28;20016;-68
2022/07/18 02:43:19;;;;;;;4.27;3.67;;;21.60;99.90;;;;;;1046918;28;20016;-68
2022/07/18 02:43:50;;;;;;;6.40;4.00;;;21.60;99.90;;;;;;1046656;28;20012;-68
2022/07/18 02:44:21;;;;;;;4.63;4.13;;;21.60;99.90;;;;;;1046719;28;20008;-68